createdAt,value
2023-02-24T00:02:01.296Z,5.90
2023-02-24T00:04:31.116Z,5.83
2023-02-24T00:06:59.865Z,6.30
2023-02-24T00:09:28.623Z,5.83
2023-02-24T00:12:04.423Z,5.33
2023-02-24T00:14:34.232Z,7.90
2023-02-24T00:17:01.405Z,8.50
2023-02-24T00:19:32.716Z,7.03
2023-02-24T00:22:01.446Z,6.17
2023-02-24T00:24:28.699Z,5.50
2023-02-24T00:26:59.436Z,5.53
2023-02-24T00:29:28.839Z,6.43
2023-02-24T00:32:00.153Z,5.50
2023-02-24T00:34:31.495Z,6.47
2023-02-24T00:36:58.819Z,8.77
2023-02-24T00:39:33.554Z,8.40
2023-02-24T00:42:05.102Z,6.47
2023-02-24T00:44:38.010Z,5.77
2023-02-24T00:47:07.075Z,4.83
2023-02-24T00:49:35.988Z,5.60
2023-02-24T00:52:04.750Z,4.97
2023-02-24T00:54:32.372Z,5.30
2023-02-24T00:56:59.073Z,6.33
2023-02-24T00:59:26.178Z,5.47
2023-02-24T01:01:54.744Z,6.40
2023-02-24T01:04:23.366Z,5.33
2023-02-24T01:06:52.805Z,5.10
2023-02-24T01:09:21.289Z,5.10
2023-02-24T01:12:18.171Z,5.77
2023-02-24T01:14:49.474Z,5.87
2023-02-24T01:17:18.420Z,6.10
2023-02-24T01:19:47.354Z,5.40
2023-02-24T01:22:16.231Z,5.63
2023-02-24T01:24:44.588Z,5.80
2023-02-24T01:27:13.604Z,5.90
2023-02-24T01:29:40.637Z,5.90
2023-02-24T01:32:12.936Z,5.93
2023-02-24T01:34:42.521Z,6.50
2023-02-24T01:37:10.082Z,6.47
2023-02-24T01:39:37.268Z,5.60
2023-02-24T01:42:06.466Z,6.80
2023-02-24T01:44:33.325Z,6.50
2023-02-24T01:47:04.007Z,6.77
2023-02-24T01:49:41.188Z,6.13
2023-02-24T01:52:13.373Z,7.00
2023-02-24T01:55:14.099Z,6.33
2023-02-24T01:57:41.373Z,7.03
2023-02-24T02:00:11.555Z,6.27
2023-02-24T02:02:42.447Z,6.60
2023-02-24T02:05:10.125Z,6.33
2023-02-24T02:07:40.436Z,7.03
2023-02-24T02:10:09.159Z,7.23
2023-02-24T02:12:44.226Z,7.00
2023-02-24T02:15:14.342Z,7.03
2023-02-24T02:18:27.151Z,7.30
2023-02-24T02:20:56.876Z,6.20
2023-02-24T02:23:58.231Z,6.70
2023-02-24T02:26:28.095Z,6.47
2023-02-24T02:29:04.576Z,6.37
2023-02-24T02:31:50.992Z,7.10
2023-02-24T02:34:56.179Z,6.17
2023-02-24T02:37:37.402Z,6.97
2023-02-24T02:40:21.205Z,6.73
2023-02-24T02:43:01.992Z,7.20
2023-02-24T02:45:40.578Z,7.73
2023-02-24T02:48:15.431Z,7.53
2023-02-24T02:50:57.339Z,7.60
2023-02-24T02:53:26.649Z,7.60
2023-02-24T02:56:00.246Z,7.50
2023-02-24T02:58:36.239Z,7.57
2023-02-24T03:01:07.186Z,7.87
2023-02-24T03:03:42.668Z,8.43
2023-02-24T03:06:17.479Z,8.73
2023-02-24T03:09:01.903Z,9.43
2023-02-24T03:11:30.974Z,10.10
2023-02-24T03:13:58.523Z,11.87
2023-02-24T03:16:26.704Z,13.37
2023-02-24T03:19:03.889Z,15.27
2023-02-24T03:21:36.891Z,15.27
2023-02-24T03:24:06.464Z,17.60
2023-02-24T03:26:56.909Z,18.83
2023-02-24T03:29:26.904Z,19.50
2023-02-24T03:32:04.843Z,19.77
2023-02-24T03:34:48.542Z,19.77
2023-02-24T03:37:15.478Z,19.90
2023-02-24T03:39:42.787Z,18.13
2023-02-24T03:42:18.970Z,17.70
2023-02-24T03:44:46.217Z,18.10
2023-02-24T03:47:17.692Z,17.07
2023-02-24T03:49:45.232Z,17.63
2023-02-24T03:52:36.338Z,16.77
2023-02-24T03:55:17.957Z,17.77
2023-02-24T03:58:12.841Z,17.07
2023-02-24T04:01:00.500Z,15.67
2023-02-24T04:03:46.426Z,16.13
2023-02-24T04:06:21.597Z,17.70
2023-02-24T04:09:01.407Z,18.67
2023-02-24T04:11:39.780Z,16.67
2023-02-24T04:14:12.193Z,17.50
2023-02-24T04:16:44.455Z,17.47
2023-02-24T04:19:15.880Z,17.17
2023-02-24T04:21:44.492Z,17.43
2023-02-24T04:24:15.854Z,18.50
2023-02-24T04:26:45.460Z,17.17
2023-02-24T04:29:17.601Z,17.40
2023-02-24T04:31:51.424Z,16.90
2023-02-24T04:34:20.356Z,18.23
2023-02-24T04:36:49.689Z,18.00
2023-02-24T04:39:19.150Z,16.77
2023-02-24T04:41:49.428Z,16.40
2023-02-24T04:44:17.831Z,15.83
2023-02-24T04:46:49.950Z,15.93
2023-02-24T04:49:18.087Z,15.73
2023-02-24T04:51:45.783Z,15.90
2023-02-24T04:54:17.496Z,16.80
2023-02-24T04:56:50.744Z,16.60
2023-02-24T04:59:19.697Z,17.00
2023-02-24T05:01:46.914Z,18.37
2023-02-24T05:04:14.685Z,17.83
2023-02-24T05:06:44.013Z,17.33
2023-02-24T05:09:17.006Z,17.60
2023-02-24T05:11:51.743Z,16.90
2023-02-24T05:14:24.957Z,15.43
2023-02-24T05:16:51.817Z,17.10
2023-02-24T05:19:38.876Z,16.73
2023-02-24T05:22:07.256Z,17.20
2023-02-24T05:24:35.496Z,17.83
2023-02-24T05:27:04.513Z,18.63
2023-02-24T05:29:34.238Z,19.03
2023-02-24T05:32:04.650Z,19.60
2023-02-24T05:34:33.748Z,18.77
2023-02-24T05:37:07.546Z,21.13
2023-02-24T05:39:35.196Z,20.70
2023-02-24T05:42:06.553Z,22.77
2023-02-24T05:44:35.503Z,22.40
2023-02-24T05:47:02.753Z,23.17
2023-02-24T05:49:34.027Z,24.00
2023-02-24T05:52:07.687Z,22.73
2023-02-24T05:54:40.417Z,23.60
2023-02-24T05:57:12.091Z,23.20
2023-02-24T05:59:42.521Z,24.27
2023-02-24T06:02:13.031Z,25.03
2023-02-24T06:04:53.970Z,25.37
2023-02-24T06:07:25.359Z,25.17
2023-02-24T06:09:57.425Z,24.80
2023-02-24T06:12:28.077Z,25.17
2023-02-24T06:14:55.464Z,24.20
2023-02-24T06:17:23.044Z,25.20
2023-02-24T06:19:51.944Z,23.83
2023-02-24T06:22:21.080Z,24.47
2023-02-24T06:24:49.555Z,23.10
2023-02-24T06:27:21.641Z,24.50
2023-02-24T06:29:51.174Z,24.40
2023-02-24T06:32:19.499Z,23.53
2023-02-24T06:34:46.606Z,24.63
2023-02-24T06:37:14.878Z,24.63
2023-02-24T06:39:42.007Z,24.73
2023-02-24T06:42:10.811Z,25.23
2023-02-24T06:44:39.135Z,23.70
2023-02-24T06:47:08.630Z,23.30
2023-02-24T06:49:35.447Z,25.90
2023-02-24T06:52:03.256Z,25.17
2023-02-24T06:54:30.613Z,24.93
2023-02-24T06:56:59.209Z,25.57
2023-02-24T06:59:29.709Z,25.10
2023-02-24T07:01:58.123Z,24.87
2023-02-24T07:04:28.242Z,25.87
2023-02-24T07:06:58.473Z,26.93
2023-02-24T07:09:26.726Z,25.43
2023-02-24T07:11:56.103Z,25.23
2023-02-24T07:14:25.590Z,25.50
2023-02-24T07:16:55.029Z,27.00
2023-02-24T07:19:29.149Z,26.27
2023-02-24T07:22:02.264Z,26.20
2023-02-24T07:24:36.806Z,26.03
2023-02-24T07:27:07.529Z,26.50
2023-02-24T07:29:35.554Z,27.07
2023-02-24T07:32:05.893Z,26.57
2023-02-24T07:34:33.988Z,27.30
2023-02-24T07:37:07.983Z,27.10
2023-02-24T07:39:39.661Z,28.70
2023-02-24T07:42:08.891Z,28.80
2023-02-24T07:44:35.691Z,27.50
2023-02-24T07:47:08.098Z,27.40
2023-02-24T07:49:35.679Z,27.23
2023-02-24T07:52:02.785Z,28.00
2023-02-24T07:54:30.635Z,29.47
2023-02-24T07:56:59.661Z,29.17
2023-02-24T07:59:29.174Z,27.57
2023-02-24T08:01:57.688Z,27.90
2023-02-24T08:04:29.010Z,26.83
2023-02-24T08:06:56.615Z,29.07
2023-02-24T08:09:48.540Z,28.20
2023-02-24T08:12:22.230Z,29.40
2023-02-24T08:14:53.504Z,26.87
2023-02-24T08:17:23.069Z,27.20
2023-02-24T08:20:12.337Z,28.93
2023-02-24T08:22:43.894Z,28.30
2023-02-24T08:25:18.610Z,27.20
2023-02-24T08:28:06.728Z,27.30
2023-02-24T08:30:39.266Z,28.20
2023-02-24T08:33:09.114Z,28.63
2023-02-24T08:35:38.376Z,31.00
2023-02-24T08:38:17.631Z,28.93
2023-02-24T08:40:51.767Z,28.90
2023-02-24T08:43:30.265Z,27.87
2023-02-24T08:46:03.796Z,28.87
2023-02-24T08:48:37.935Z,29.23
2023-02-24T08:51:10.648Z,28.27
2023-02-24T08:53:40.653Z,28.90
2023-02-24T08:56:11.380Z,28.00
2023-02-24T08:58:57.032Z,30.03
2023-02-24T09:01:36.857Z,30.93
2023-02-24T09:04:11.047Z,30.53
2023-02-24T09:06:53.796Z,31.60
2023-02-24T09:09:22.760Z,30.80
2023-02-24T09:11:58.198Z,30.53
2023-02-24T09:14:36.421Z,28.83
2023-02-24T09:17:06.873Z,27.90
2023-02-24T09:19:46.872Z,29.30
2023-02-24T09:22:33.358Z,28.87
2023-02-24T09:25:18.943Z,29.03
2023-02-24T09:27:52.359Z,28.07
2023-02-24T09:30:36.980Z,27.67
2023-02-24T09:33:20.793Z,26.90
2023-02-24T09:35:50.482Z,27.67
2023-02-24T09:38:40.482Z,29.13
2023-02-24T09:41:30.129Z,28.93
2023-02-24T09:44:10.342Z,27.03
2023-02-24T09:46:53.961Z,27.53
2023-02-24T09:49:48.729Z,27.73
2023-02-24T09:52:18.927Z,27.43
2023-02-24T09:55:13.740Z,26.83
2023-02-24T09:58:19.992Z,26.80
2023-02-24T10:01:21.635Z,26.47
2023-02-24T10:03:51.939Z,25.73
2023-02-24T10:06:26.779Z,25.13
2023-02-24T10:09:11.807Z,25.17
2023-02-24T10:11:55.887Z,25.77
2023-02-24T10:14:43.661Z,24.13
2023-02-24T10:17:40.391Z,26.23
2023-02-24T10:20:31.230Z,25.70
2023-02-24T10:23:29.715Z,23.63
2023-02-24T10:26:07.450Z,25.77
2023-02-24T10:28:58.581Z,24.70
2023-02-24T10:31:35.799Z,23.93
2023-02-24T10:34:08.690Z,24.23
2023-02-24T10:36:36.271Z,24.27
2023-02-24T10:39:25.402Z,24.40
2023-02-24T10:41:58.079Z,26.70
2023-02-24T10:44:36.589Z,24.70
2023-02-24T10:47:13.379Z,23.20
2023-02-24T10:49:57.449Z,23.10
2023-02-24T10:53:10.902Z,22.93
2023-02-24T10:55:45.263Z,23.37
2023-02-24T10:58:37.829Z,21.60
2023-02-24T11:01:20.838Z,21.80
2023-02-24T11:04:01.505Z,24.37
2023-02-24T11:06:41.764Z,22.73
2023-02-24T11:09:29.613Z,25.17
2023-02-24T11:12:29.918Z,23.43
2023-02-24T11:15:18.906Z,23.67
2023-02-24T11:18:06.944Z,22.53
2023-02-24T11:20:49.097Z,24.23
2023-02-24T11:23:24.570Z,21.97
2023-02-24T11:26:04.725Z,22.80
2023-02-24T11:28:59.224Z,20.77
2023-02-24T11:31:44.722Z,20.40
2023-02-24T11:34:25.102Z,21.23
2023-02-24T11:37:15.498Z,19.97
2023-02-24T11:39:59.043Z,19.97
2023-02-24T11:42:46.529Z,18.47
2023-02-24T11:45:35.108Z,19.63
2023-02-24T11:48:32.433Z,18.03
2023-02-24T11:51:12.209Z,19.67
2023-02-24T11:53:49.453Z,19.73
2023-02-24T11:56:30.222Z,19.77
2023-02-24T11:59:28.902Z,18.97
2023-02-24T12:02:34.086Z,19.47
2023-02-24T12:05:13.395Z,18.43
2023-02-24T12:07:44.216Z,17.70
2023-02-24T12:10:16.999Z,19.93
2023-02-24T12:12:49.920Z,18.00
2023-02-24T12:15:29.858Z,19.43
2023-02-24T12:18:25.347Z,18.10
2023-02-24T12:21:00.911Z,18.63
2023-02-24T12:23:35.457Z,17.40
2023-02-24T12:26:16.395Z,16.87
2023-02-24T12:28:50.146Z,18.10
2023-02-24T12:31:41.812Z,16.67
2023-02-24T12:34:34.474Z,17.17
2023-02-24T12:37:07.745Z,17.50
2023-02-24T12:39:46.305Z,17.80
2023-02-24T12:42:34.901Z,17.27
2023-02-24T12:45:23.348Z,17.57
2023-02-24T12:47:53.123Z,17.93
2023-02-24T12:50:28.616Z,17.53
2023-02-24T12:53:12.445Z,18.17
2023-02-24T12:55:48.028Z,16.57
2023-02-24T12:58:23.722Z,17.90
2023-02-24T13:01:15.148Z,16.57
2023-02-24T13:04:01.467Z,18.77
2023-02-24T13:06:40.595Z,18.00
2023-02-24T13:09:32.470Z,16.13
2023-02-24T13:12:15.592Z,17.43
2023-02-24T13:14:43.455Z,16.23
2023-02-24T13:17:10.214Z,16.93
2023-02-24T13:19:41.500Z,16.80
2023-02-24T13:22:21.810Z,16.73
2023-02-24T13:24:54.242Z,15.40
2023-02-24T13:27:24.023Z,17.07
2023-02-24T13:29:59.151Z,15.43
2023-02-24T13:32:36.503Z,14.53
2023-02-24T13:35:26.614Z,15.73
2023-02-24T13:37:54.531Z,15.13
2023-02-24T13:40:22.435Z,13.00
2023-02-24T13:43:01.138Z,13.17
2023-02-24T13:45:35.345Z,12.53
2023-02-24T13:48:37.573Z,12.63
2023-02-24T13:51:29.215Z,12.43
2023-02-24T13:54:09.597Z,10.57
2023-02-24T13:57:11.644Z,12.80
2023-02-24T14:00:01.597Z,11.20
2023-02-24T14:02:30.947Z,11.83
2023-02-24T14:05:00.640Z,11.93
2023-02-24T14:07:37.508Z,12.13
2023-02-24T14:10:20.344Z,12.43
2023-02-24T14:12:49.735Z,12.93
2023-02-24T14:15:21.769Z,12.70
2023-02-24T14:17:59.698Z,12.57
2023-02-24T14:20:27.812Z,14.40
2023-02-24T14:22:58.811Z,13.17
2023-02-24T14:25:29.681Z,14.27
2023-02-24T14:27:57.850Z,14.93
2023-02-24T14:30:32.031Z,14.33
2023-02-24T14:33:00.135Z,14.10
2023-02-24T14:35:46.516Z,15.03
2023-02-24T14:38:40.400Z,13.50
2023-02-24T14:41:30.261Z,14.80
2023-02-24T14:43:57.192Z,16.17
2023-02-24T14:46:24.700Z,14.43
2023-02-24T14:48:56.330Z,15.63
2023-02-24T14:51:34.925Z,14.93
2023-02-24T14:54:06.047Z,14.97
2023-02-24T14:56:34.115Z,15.90
2023-02-24T14:59:07.786Z,15.30
2023-02-24T15:01:39.670Z,15.53
2023-02-24T15:04:19.985Z,14.87
2023-02-24T15:06:49.127Z,14.73
2023-02-24T15:09:25.291Z,15.07
2023-02-24T15:11:53.319Z,15.03
2023-02-24T15:14:24.346Z,14.80
2023-02-24T15:16:55.129Z,15.30
2023-02-24T15:19:38.942Z,16.10
2023-02-24T15:22:17.730Z,15.27
2023-02-24T15:24:44.799Z,17.60
2023-02-24T15:27:14.541Z,17.60
2023-02-24T15:29:44.212Z,16.23
2023-02-24T15:32:21.545Z,16.60
2023-02-24T15:34:48.464Z,16.53
2023-02-24T15:37:22.629Z,18.10
2023-02-24T15:39:51.641Z,17.30
2023-02-24T15:42:32.134Z,16.77
2023-02-24T15:45:00.411Z,16.97
2023-02-24T15:47:28.920Z,17.53
2023-02-24T15:49:55.849Z,17.23
2023-02-24T15:52:27.050Z,16.47
2023-02-24T15:55:00.809Z,17.40
2023-02-24T15:57:30.158Z,19.63
2023-02-24T15:59:56.952Z,17.63
2023-02-24T16:02:25.395Z,16.97
2023-02-24T16:04:52.551Z,21.60
2023-02-24T16:07:20.851Z,18.07
2023-02-24T16:09:49.476Z,19.53
2023-02-24T16:12:24.004Z,19.53
2023-02-24T16:14:55.998Z,16.07
2023-02-24T16:17:38.736Z,16.47
2023-02-24T16:20:17.776Z,16.87
2023-02-24T16:22:44.650Z,16.97
2023-02-24T16:25:16.230Z,17.50
2023-02-24T16:27:43.361Z,17.47
2023-02-24T16:30:17.681Z,16.50
2023-02-24T16:32:45.886Z,17.63
2023-02-24T16:35:14.380Z,18.27
2023-02-24T16:37:41.313Z,18.03
2023-02-24T16:40:17.298Z,17.87
2023-02-24T16:42:44.364Z,17.00
2023-02-24T16:45:11.517Z,18.33
2023-02-24T16:47:38.934Z,19.10
2023-02-24T16:50:09.338Z,19.17
2023-02-24T16:52:36.115Z,19.10
2023-02-24T16:55:02.877Z,19.63
2023-02-24T16:57:29.686Z,19.53
2023-02-24T16:59:56.444Z,19.03
2023-02-24T17:02:25.320Z,19.60
2023-02-24T17:04:52.200Z,19.37
2023-02-24T17:07:20.904Z,20.03
2023-02-24T17:09:47.764Z,19.27
2023-02-24T17:12:17.207Z,17.67
2023-02-24T17:14:43.916Z,18.90
2023-02-24T17:17:11.726Z,19.80
2023-02-24T17:19:39.264Z,20.07
2023-02-24T17:22:06.100Z,18.77
2023-02-24T17:24:33.002Z,18.23
2023-02-24T17:27:00.548Z,17.70
2023-02-24T17:29:27.639Z,17.87
2023-02-24T17:31:54.631Z,19.03
2023-02-24T17:34:23.983Z,17.93
2023-02-24T17:36:50.953Z,18.30
2023-02-24T17:39:17.743Z,17.50
2023-02-24T17:41:44.661Z,17.80
2023-02-24T17:44:11.555Z,18.00
2023-02-24T17:46:38.399Z,17.20
2023-02-24T17:49:05.413Z,17.70
2023-02-24T17:51:32.431Z,16.90
2023-02-24T17:53:59.259Z,18.67
2023-02-24T17:56:26.271Z,18.30
2023-02-24T17:58:58.618Z,17.93
2023-02-24T18:01:26.824Z,16.70
2023-02-24T18:03:55.705Z,16.50
2023-02-24T18:06:22.725Z,16.83
2023-02-24T18:08:49.617Z,14.80
2023-02-24T18:11:18.037Z,14.57
2023-02-24T18:13:45.381Z,15.63
2023-02-24T18:16:15.086Z,15.93
2023-02-24T18:18:42.157Z,15.60
2023-02-24T18:21:09.030Z,14.43
2023-02-24T18:23:40.120Z,14.20
2023-02-24T18:26:08.284Z,14.17
2023-02-24T18:28:35.551Z,13.93
2023-02-24T18:31:10.717Z,13.87
2023-02-24T18:33:37.706Z,12.63
2023-02-24T18:36:04.840Z,12.30
2023-02-24T18:38:33.972Z,12.60
2023-02-24T18:41:06.508Z,11.83
2023-02-24T18:43:35.463Z,10.53
2023-02-24T18:46:07.655Z,11.53
2023-02-24T18:48:37.217Z,9.70
2023-02-24T18:51:04.207Z,9.40
2023-02-24T18:53:36.184Z,10.63
2023-02-24T18:56:05.442Z,10.63
2023-02-24T18:58:32.669Z,10.40
2023-02-24T19:00:59.949Z,10.03
2023-02-24T19:03:26.952Z,10.67
2023-02-24T19:05:53.750Z,9.93
2023-02-24T19:08:20.683Z,10.47
2023-02-24T19:10:47.499Z,10.03
2023-02-24T19:13:14.931Z,9.97
2023-02-24T19:15:43.322Z,9.37
2023-02-24T19:18:10.134Z,9.47
2023-02-24T19:20:43.698Z,9.07
2023-02-24T19:23:11.111Z,8.73
2023-02-24T19:25:37.828Z,9.50
2023-02-24T19:28:04.818Z,8.63
2023-02-24T19:30:31.983Z,9.03
2023-02-24T19:32:58.931Z,8.63
2023-02-24T19:35:26.312Z,9.33
2023-02-24T19:37:53.158Z,9.60
2023-02-24T19:40:20.784Z,10.27
2023-02-24T19:42:49.449Z,9.87
2023-02-24T19:45:17.321Z,9.70
2023-02-24T19:47:46.929Z,9.60
2023-02-24T19:50:15.330Z,11.00
2023-02-24T19:52:42.952Z,10.37
2023-02-24T19:55:11.710Z,9.90
2023-02-24T19:57:38.801Z,10.13
2023-02-24T20:00:07.239Z,10.60
2023-02-24T20:02:33.973Z,11.03
2023-02-24T20:05:01.536Z,11.77
2023-02-24T20:07:28.352Z,11.67
2023-02-24T20:09:55.522Z,11.47
2023-02-24T20:12:22.458Z,11.00
2023-02-24T20:14:50.472Z,11.27
2023-02-24T20:17:17.685Z,11.50
2023-02-24T20:19:44.622Z,12.27
2023-02-24T20:22:11.418Z,13.00
2023-02-24T20:24:38.560Z,12.20
2023-02-24T20:27:05.536Z,13.23
2023-02-24T20:29:33.577Z,13.07
2023-02-24T20:32:01.386Z,11.93
2023-02-24T20:34:28.223Z,11.63
2023-02-24T20:36:55.340Z,12.97
2023-02-24T20:39:24.887Z,12.47
2023-02-24T20:41:53.695Z,13.13
2023-02-24T20:44:20.802Z,12.43
2023-02-24T20:46:47.775Z,13.43
2023-02-24T20:49:17.628Z,12.53
2023-02-24T20:51:44.685Z,13.13
2023-02-24T20:54:13.336Z,12.17
2023-02-24T20:56:42.754Z,12.97
2023-02-24T20:59:13.929Z,13.37
2023-02-24T21:01:40.920Z,14.17
2023-02-24T21:04:08.906Z,12.67
2023-02-24T21:06:37.289Z,12.07
2023-02-24T21:09:04.405Z,12.43
2023-02-24T21:11:31.975Z,12.43
2023-02-24T21:13:59.480Z,14.10
2023-02-24T21:16:27.287Z,12.90
2023-02-24T21:18:55.799Z,11.23
2023-02-24T21:21:22.796Z,10.53
2023-02-24T21:23:50.466Z,11.30
2023-02-24T21:26:17.901Z,11.10
2023-02-24T21:28:44.948Z,9.63
2023-02-24T21:31:14.539Z,10.23
2023-02-24T21:33:41.669Z,8.87
2023-02-24T21:36:13.596Z,6.90
2023-02-24T21:38:41.333Z,7.80
2023-02-24T21:41:10.257Z,6.90
2023-02-24T21:43:37.907Z,7.13
2023-02-24T21:46:06.731Z,6.37
2023-02-24T21:48:33.908Z,5.37
2023-02-24T21:51:03.956Z,3.77
2023-02-24T21:53:35.865Z,3.00
2023-02-24T21:56:11.152Z,2.40
2023-02-24T21:58:39.444Z,2.50
2023-02-24T22:01:14.196Z,2.37
2023-02-24T22:03:41.075Z,2.30
2023-02-24T22:06:10.890Z,2.10
2023-02-24T22:08:43.042Z,2.60
2023-02-24T22:11:12.487Z,2.07
2023-02-24T22:13:40.793Z,2.13
2023-02-24T22:16:09.494Z,1.97
2023-02-24T22:18:36.578Z,1.93
2023-02-24T22:21:17.267Z,1.97
2023-02-24T22:23:48.797Z,1.73
2023-02-24T22:26:16.848Z,1.80
2023-02-24T22:28:45.138Z,1.73
2023-02-24T22:31:14.183Z,1.80
2023-02-24T22:33:43.048Z,2.07
2023-02-24T22:36:21.740Z,2.30
2023-02-24T22:38:48.854Z,2.20
2023-02-24T22:41:20.943Z,2.17
2023-02-24T22:43:48.263Z,2.30
2023-02-24T22:46:22.301Z,2.13
2023-02-24T22:48:50.410Z,2.20
2023-02-24T22:51:18.438Z,2.20
2023-02-24T22:53:49.006Z,2.17
2023-02-24T22:56:19.756Z,2.30
2023-02-24T22:58:46.874Z,1.80
2023-02-24T23:01:23.887Z,2.10
2023-02-24T23:03:51.104Z,2.10
2023-02-24T23:06:21.601Z,1.80
2023-02-24T23:08:50.011Z,2.07
2023-02-24T23:11:24.920Z,2.10
2023-02-24T23:13:52.409Z,1.90
2023-02-24T23:16:22.347Z,2.37
2023-02-24T23:18:50.891Z,2.40
2023-02-24T23:21:26.459Z,2.50
2023-02-24T23:23:56.829Z,2.33
2023-02-24T23:26:45.545Z,2.20
2023-02-24T23:29:15.409Z,3.00
2023-02-24T23:31:42.509Z,2.50
2023-02-24T23:34:10.166Z,2.43
2023-02-24T23:36:39.661Z,3.80
2023-02-24T23:39:07.956Z,3.00
2023-02-24T23:41:36.026Z,3.30
2023-02-24T23:44:04.204Z,2.90
2023-02-24T23:46:33.211Z,3.17
2023-02-24T23:49:00.373Z,3.50
2023-02-24T23:51:35.798Z,3.50
2023-02-24T23:54:11.056Z,4.10
2023-02-24T23:56:37.783Z,4.50
2023-02-24T23:59:04.486Z,4.13
